Time;durP1;ratioP1;P1;durP2;ratioP2;P2;SDS_P1;SDS_P2;PMS_P1;PMS_P2;Temp;Humidity;BMP_temperature;BMP_pressure;BME280_temperature;BME280_humidity;BME280_pressure;Samples;Min_cycle;Max_cycle;Signal;HPM_P1;HPM_P2
2021/11/14 00:02:29;;;;;;;28.70;16.00;;;;;;;9.70;71.00;101411.77;126330;1099;104159;-81
2021/11/14 00:05:01;;;;;;;42.07;15.83;;;;;;;9.67;70.42;101413.33;126241;1098;104194;-81
2021/11/14 00:07:37;;;;;;;31.73;16.27;;;;;;;9.65;71.07;101407.11;126331;1098;104191;-81
2021/11/14 00:10:10;;;;;;;35.33;16.30;;;;;;;9.64;71.18;101411.43;126278;1099;104271;-81
2021/11/14 00:12:42;;;;;;;35.30;17.20;;;;;;;9.63;70.89;101406.11;126352;1099;104239;-82
2021/11/14 00:15:14;;;;;;;32.43;16.27;;;;;;;9.63;70.89;101411.34;126353;1099;104197;-81
2021/11/14 00:17:45;;;;;;;33.77;16.37;;;;;;;9.62;70.64;101413.08;126306;1099;104174;-81
2021/11/14 00:20:18;;;;;;;31.37;16.50;;;;;;;9.63;70.51;101413.97;126325;1099;104274;-81
2021/11/14 00:22:50;;;;;;;29.35;15.23;;;;;;;9.63;71.29;101411.34;126365;1099;104157;-82
2021/11/14 00:25:22;;;;;;;30.65;15.88;;;;;;;9.65;70.65;101409.73;126309;1099;104150;-80
2021/11/14 00:27:58;;;;;;;32.27;17.03;;;;;;;9.66;71.25;101409.81;126304;1099;104194;-81
2021/11/14 00:30:39;;;;;;;31.83;17.63;;;;;;;9.66;71.19;101408.89;126077;1099;104297;-81
2021/11/14 00:33:11;;;;;;;34.43;18.03;;;;;;;9.64;71.34;101414.05;125397;1099;104159;-82
2021/11/14 00:35:47;;;;;;;32.97;16.53;;;;;;;9.64;71.30;101406.19;126189;1099;104401;-82
2021/11/14 00:38:20;;;;;;;34.13;18.63;;;;;;;9.63;71.01;101408.73;126182;1099;104149;-82
2021/11/14 00:40:52;;;;;;;33.30;17.97;;;;;;;9.60;71.40;101404.24;126134;1099;104178;-81
2021/11/14 00:43:24;;;;;;;35.83;18.30;;;;;;;9.58;71.29;101405.86;126200;1099;104369;-80
2021/11/14 00:45:55;;;;;;;32.73;17.40;;;;;;;9.60;71.49;101404.24;125411;1099;104278;-81
2021/11/14 00:48:25;;;;;;;35.33;17.13;;;;;;;9.61;70.85;101400.78;126201;1099;104359;-82
2021/11/14 00:50:56;;;;;;;36.33;18.40;;;;;;;9.62;70.94;101399.09;126172;1099;104305;-81
2021/11/14 00:53:27;;;;;;;33.37;17.97;;;;;;;9.64;71.47;101395.70;126208;1099;104736;-81
2021/11/14 00:55:59;;;;;;;29.67;17.33;;;;;;;9.64;70.90;101400.95;125426;1099;104608;-82
2021/11/14 00:58:30;;;;;;;36.77;19.67;;;;;;;9.63;70.98;101390.38;126218;1099;104291;-82
2021/11/14 01:01:01;;;;;;;36.43;19.33;;;;;;;9.62;71.02;101397.35;126153;1099;104159;-82
2021/11/14 01:03:32;;;;;;;37.37;20.00;;;;;;;9.63;71.22;101393.92;126124;1099;104137;-80
2021/11/14 01:06:04;;;;;;;35.97;19.13;;;;;;;9.63;71.65;101396.55;126340;1099;104567;-82
2021/11/14 01:08:35;;;;;;;33.27;18.20;;;;;;;9.63;71.10;101387.77;126302;1099;104153;-81
2021/11/14 01:11:08;;;;;;;35.23;18.60;;;;;;;9.60;71.28;101391.14;126289;1099;104184;-82
2021/11/14 01:13:40;;;;;;;32.40;17.90;;;;;;;9.62;71.21;101388.60;126335;1099;104143;-81
2021/11/14 01:16:13;;;;;;;35.40;18.07;;;;;;;9.62;71.82;101386.88;126294;1098;104219;-80
2021/11/14 01:18:45;;;;;;;35.65;19.27;;;;;;;9.64;71.72;101382.60;126344;1099;101899;-81
2021/11/14 01:21:17;;;;;;;38.10;20.57;;;;;;;9.63;71.19;101391.30;126210;1099;104364;-81
2021/11/14 01:23:53;;;;;;;38.23;21.97;;;;;;;9.62;71.93;101392.11;126355;1099;104300;-81
2021/11/14 01:26:25;;;;;;;40.43;22.50;;;;;;;9.61;71.45;101384.17;126361;1099;104143;-81
2021/11/14 01:28:56;;;;;;;40.83;23.07;;;;;;;9.57;72.01;101393.59;126378;1099;104139;-80
2021/11/14 01:31:27;;;;;;;39.60;22.37;;;;;;;9.56;72.04;101386.54;126342;1099;104380;-81
2021/11/14 01:33:57;;;;;;;43.35;23.95;;;;;;;9.55;71.63;101379.48;126299;1099;104275;-81
2021/11/14 01:36:32;;;;;;;40.17;21.20;;;;;;;9.55;71.88;101379.48;126313;1099;104197;-81
2021/11/14 01:39:06;;;;;;;40.63;22.10;;;;;;;9.54;71.49;101381.22;126313;1099;104825;-81
2021/11/14 01:41:37;;;;;;;41.07;22.53;;;;;;;9.53;71.56;101378.52;126256;1099;104308;-80
2021/11/14 01:44:10;;;;;;;40.23;21.90;;;;;;;9.52;72.00;101372.38;126305;1099;104291;-80
2021/11/14 01:46:44;;;;;;;40.97;22.60;;;;;;;9.52;72.21;101374.08;126244;1099;104175;-80
2021/11/14 01:49:14;;;;;;;;;;;;;;;9.52;71.66;101374.08;126338;1099;104204;-81
2021/11/14 01:51:44;;;;;;;41.63;22.63;;;;;;;9.51;71.72;101375.81;126286;1099;104701;-81
2021/11/14 01:54:19;;;;;;;41.10;23.03;;;;;;;9.53;72.39;101370.66;126317;1099;104220;-81
2021/11/14 01:56:50;;;;;;;44.73;23.67;;;;;;;9.55;72.33;101366.39;126333;1099;104166;-80
2021/11/14 01:59:22;;;;;;;42.90;23.93;;;;;;;9.56;72.40;101370.82;126285;1099;104146;-81
2021/11/14 02:01:54;;;;;;;40.47;23.13;;;;;;;9.54;72.33;101370.73;126294;1099;104256;-82
2021/11/14 02:04:25;;;;;;;40.97;23.63;;;;;;;9.53;72.41;101373.28;126266;1099;104185;-81
2021/11/14 02:06:56;;;;;;;45.60;24.37;;;;;;;9.52;71.82;101367.14;126297;1099;104217;-81
2021/11/14 02:09:27;;;;;;;42.70;23.07;;;;;;;9.53;72.01;101370.66;126339;1099;104230;-81
2021/11/14 02:11:58;;;;;;;40.23;22.60;;;;;;;9.52;72.25;101375.00;126211;1099;104165;-80
2021/11/14 02:14:29;;;;;;;39.40;21.93;;;;;;;9.50;72.55;101376.62;126311;1099;104150;-80
2021/11/14 02:17:02;;;;;;;46.33;23.83;;;;;;;9.51;72.21;101378.44;126333;1099;104175;-80
2021/11/14 02:19:33;;;;;;;42.00;22.70;;;;;;;9.52;72.45;101380.25;126306;1099;104249;-82
2021/11/14 02:22:05;;;;;;;39.93;22.00;;;;;;;9.54;72.01;101378.59;126317;1099;104293;-81
2021/11/14 02:24:36;;;;;;;44.57;24.43;;;;;;;9.58;72.04;101384.00;126309;1099;103980;-82
2021/11/14 02:27:07;;;;;;;43.80;23.87;;;;;;;9.57;72.00;101383.11;126274;1099;104627;-80
2021/11/14 02:29:38;;;;;;;42.07;23.13;;;;;;;9.57;72.70;101382.19;126335;1099;104219;-81
2021/11/14 02:32:12;;;;;;;45.63;24.27;;;;;;;9.53;72.74;101379.41;126316;1099;105487;-81
2021/11/14 02:34:43;;;;;;;41.43;23.33;;;;;;;9.52;72.70;101392.42;126321;1099;104142;-80
2021/11/14 02:37:14;;;;;;;44.07;23.87;;;;;;;9.49;72.62;101382.70;126296;1099;104152;-82
2021/11/14 02:39:45;;;;;;;43.90;24.20;;;;;;;9.49;72.41;101384.39;126276;1099;104140;-81
2021/11/14 02:42:16;;;;;;;49.63;25.63;;;;;;;9.49;72.19;101373.91;126295;1099;104213;-81
2021/11/14 02:44:48;;;;;;;45.10;25.30;;;;;;;9.49;72.79;101379.16;126330;1099;104178;-80
2021/11/14 02:47:20;;;;;;;46.77;26.60;;;;;;;9.50;72.70;101387.09;126282;1099;104169;-81
2021/11/14 02:49:55;;;;;;;47.70;26.37;;;;;;;9.50;72.19;101384.48;126328;1099;104150;-82
2021/11/14 02:52:26;;;;;;;53.17;28.17;;;;;;;9.50;72.66;101383.59;126282;1099;104149;-81
2021/11/14 02:54:56;;;;;;;52.63;28.07;;;;;;;9.51;72.75;101382.78;126319;1099;104255;-82
2021/11/14 02:57:27;;;;;;;56.23;31.40;;;;;;;9.52;72.91;101389.80;126382;1099;104248;-81
2021/11/14 02:59:58;;;;;;;54.40;29.17;;;;;;;9.49;72.80;101381.77;126345;1099;104185;-81
2021/11/14 03:02:28;;;;;;;55.67;31.10;;;;;;;9.47;72.49;101386.97;126293;1099;104187;-82
2021/11/14 03:04:59;;;;;;;55.23;31.10;;;;;;;9.48;72.42;101387.86;126347;1098;101786;-82
2021/11/14 03:07:32;;;;;;;55.40;29.77;;;;;;;9.49;73.10;101385.31;126366;1099;104209;-82
2021/11/14 03:10:04;;;;;;;53.80;29.90;;;;;;;9.51;72.42;101383.67;126289;1099;104974;-81
2021/11/14 03:12:34;;;;;;;54.87;31.37;;;;;;;9.51;72.50;101382.78;126319;1099;104261;-81
2021/11/14 03:15:06;;;;;;;59.97;32.87;;;;;;;9.50;72.88;101387.09;126304;1099;104153;-81
2021/11/14 03:17:37;;;;;;;58.43;33.13;;;;;;;9.47;73.24;101381.73;126325;1099;104284;-81
2021/11/14 03:20:10;;;;;;;60.23;33.17;;;;;;;9.42;72.98;101380.55;126332;1097;104239;-81
2021/11/14 03:22:41;;;;;;;61.23;34.37;;;;;;;9.38;73.28;101375.06;126343;1099;104178;-82
2021/11/14 03:25:12;;;;;;;58.80;33.43;;;;;;;9.35;72.77;101378.44;126374;1099;104143;-82
2021/11/14 03:27:43;;;;;;;59.57;32.93;;;;;;;9.34;73.23;101377.52;126316;1099;104606;-81
2021/11/14 03:30:18;;;;;;;61.40;33.57;;;;;;;9.35;73.39;101379.33;126283;1099;104210;-82
2021/11/14 03:32:50;;;;;;;64.07;34.10;;;;;;;9.40;73.25;101376.95;126302;1099;104184;-81
2021/11/14 03:35:23;;;;;;;60.70;34.00;;;;;;;9.43;73.39;101373.61;126318;1099;104188;-81
2021/11/14 03:37:58;;;;;;;59.53;34.17;;;;;;;9.45;72.79;101377.21;126345;1099;104187;-83
2021/11/14 03:40:30;;;;;;;65.83;35.97;;;;;;;9.44;72.88;101371.08;126300;1099;104147;-80
2021/11/14 03:43:01;;;;;;;62.30;36.10;;;;;;;9.42;72.86;101364.83;126220;1099;104245;-81
2021/11/14 03:45:32;;;;;;;69.00;36.73;;;;;;;9.39;72.91;101371.64;126313;1099;104204;-83
2021/11/14 03:48:04;;;;;;;66.20;35.50;;;;;;;9.39;72.91;101355.92;126383;1099;104126;-81
2021/11/14 03:50:35;;;;;;;63.87;35.33;;;;;;;9.41;73.20;101356.89;126343;1099;104156;-82
2021/11/14 03:53:08;;;;;;;60.27;33.83;;;;;;;9.42;73.66;101369.19;126284;1099;104150;-81
2021/11/14 03:55:41;;;;;;;56.60;31.47;;;;;;;9.39;73.31;101369.91;126364;1098;104744;-81
2021/11/14 03:58:11;;;;;;;60.80;33.73;;;;;;;9.37;73.74;101374.17;126365;1099;104153;-81
2021/11/14 04:00:45;;;;;;;61.63;33.87;;;;;;;9.35;73.57;101371.47;126374;1099;104245;-82
2021/11/14 04:03:16;;;;;;;58.37;32.80;;;;;;;9.33;73.82;101372.19;126282;1099;104162;-81
2021/11/14 04:05:48;;;;;;;63.47;34.87;;;;;;;9.30;73.21;101382.50;126303;1099;104310;-81
2021/11/14 04:08:23;;;;;;;64.10;36.57;;;;;;;9.27;73.61;101380.63;126345;1099;104155;-80
2021/11/14 04:10:56;;;;;;;71.30;37.90;;;;;;;9.25;73.67;101379.63;126327;1099;104143;-80
2021/11/14 04:13:30;;;;;;;66.07;35.53;;;;;;;9.24;74.03;101379.54;126229;1099;104168;-81
2021/11/14 04:16:03;;;;;;;68.42;36.08;;;;;;;9.21;73.82;101379.37;126346;1099;104271;-81
2021/11/14 04:18:35;;;;;;;67.93;36.90;;;;;;;9.21;73.72;101379.37;126326;1099;104219;-80
2021/11/14 04:21:07;;;;;;;65.77;35.87;;;;;;;9.20;74.25;101381.10;126349;1099;104217;-81
2021/11/14 04:23:39;;;;;;;64.10;36.20;;;;;;;9.21;73.62;101381.98;126284;1099;104586;-81
2021/11/14 04:26:10;;;;;;;64.57;37.60;;;;;;;9.20;74.19;101386.34;126387;1099;104790;-81
2021/11/14 04:28:42;;;;;;;61.70;34.67;;;;;;;9.19;74.36;101381.91;126344;1099;104265;-81
2021/11/14 04:31:13;;;;;;;67.70;37.57;;;;;;;9.21;74.31;101388.16;126248;1098;104147;-82
2021/11/14 04:33:44;;;;;;;68.20;36.27;;;;;;;9.23;74.41;101388.23;126261;1099;104191;-80
2021/11/14 04:36:15;;;;;;;64.13;36.20;;;;;;;9.23;74.69;101393.47;126334;1099;104171;-80
2021/11/14 04:38:46;;;;;;;67.63;38.50;;;;;;;9.21;74.52;101398.63;126362;1099;104189;-80
2021/11/14 04:41:17;;;;;;;67.00;38.73;;;;;;;9.22;74.44;101394.28;126312;1096;104249;-82
2021/11/14 04:43:48;;;;;;;73.37;39.60;;;;;;;9.18;74.07;101390.59;126270;1099;104209;-83
2021/11/14 04:46:20;;;;;;;66.77;38.50;;;;;;;9.16;74.60;101400.06;126360;1098;104730;-81
2021/11/14 04:48:54;;;;;;;67.10;38.23;;;;;;;9.15;74.31;101398.28;126362;1099;104174;-81
2021/11/14 04:51:26;;;;;;;71.53;38.02;;;;;;;9.13;74.43;101400.81;126341;1099;104296;-81
2021/11/14 04:53:57;;;;;;;68.70;39.93;;;;;;;9.13;75.05;101402.52;126306;1099;104222;-81
2021/11/14 04:56:29;;;;;;;62.47;35.73;;;;;;;9.11;75.01;101404.16;126181;1099;104210;-81
2021/11/14 04:59:00;;;;;;;67.73;38.97;;;;;;;9.10;75.29;101405.88;126340;1099;104278;-81
2021/11/14 05:01:31;;;;;;;76.57;40.03;;;;;;;9.09;74.40;101403.17;126227;1099;104166;-81
2021/11/14 05:04:02;;;;;;;68.50;37.57;;;;;;;9.11;74.83;101398.92;126239;1099;104137;-80
2021/11/14 05:06:33;;;;;;;71.17;39.07;;;;;;;9.12;75.01;101409.48;126335;1099;104152;-81
2021/11/14 05:09:04;;;;;;;71.20;38.47;;;;;;;9.15;74.46;101406.14;126321;1098;104783;-81
2021/11/14 05:11:35;;;;;;;70.70;38.87;;;;;;;9.16;74.69;101413.16;126366;1099;104674;-82
2021/11/14 05:14:06;;;;;;;70.77;39.77;;;;;;;9.17;74.47;101417.59;126270;1099;104621;-81
2021/11/14 05:16:37;;;;;;;67.53;38.00;;;;;;;9.18;75.18;101419.41;126356;1099;104168;-82
2021/11/14 05:19:11;;;;;;;67.50;38.87;;;;;;;9.20;74.51;101412.52;126305;1099;104197;-82
2021/11/14 05:21:44;;;;;;;67.97;39.33;;;;;;;9.24;75.12;101424.06;126251;1099;104367;-82
2021/11/14 05:24:15;;;;;;;78.60;41.57;;;;;;;9.26;74.89;101419.83;126341;1099;104147;-81
2021/11/14 05:26:47;;;;;;;70.83;39.83;;;;;;;9.26;74.82;101428.58;126301;1099;104268;-81
2021/11/14 05:29:20;;;;;;;76.13;42.50;;;;;;;9.26;74.91;101435.55;126268;1099;104224;-81
2021/11/14 05:31:56;;;;;;;71.40;41.33;;;;;;;9.24;74.65;101430.23;126346;1099;104162;-81
2021/11/14 05:34:29;;;;;;;66.87;37.73;;;;;;;9.22;75.38;101436.18;126291;1099;104140;-80
2021/11/14 05:37:03;;;;;;;71.63;40.37;;;;;;;9.20;75.09;101437.82;126287;1099;104197;-80
2021/11/14 05:39:35;;;;;;;73.10;40.95;;;;;;;9.20;75.32;101433.47;126340;1099;105111;-80
2021/11/14 05:42:13;;;;;;;71.93;40.27;;;;;;;9.24;75.46;101438.08;126365;1097;104140;-79
2021/11/14 05:44:48;;;;;;;67.75;37.48;;;;;;;9.26;75.53;101439.06;126182;1099;104239;-80
2021/11/14 05:47:20;;;;;;;70.63;39.30;;;;;;;9.28;74.85;101442.66;126299;1099;107172;-82
2021/11/14 05:49:55;;;;;;;62.03;35.10;;;;;;;9.30;74.99;101448.91;126291;1099;104213;-81
2021/11/14 05:52:28;;;;;;;68.63;38.43;;;;;;;9.33;75.22;101441.22;126210;1099;104249;-80
2021/11/14 05:55:04;;;;;;;71.97;39.07;;;;;;;9.36;75.53;101440.46;126309;1099;104261;-81
2021/11/14 05:57:48;;;;;;;69.80;40.37;;;;;;;9.38;75.00;101437.93;126295;1098;117761;-81
2021/11/14 06:00:25;;;;;;;;;;;;;;;9.39;75.43;101440.63;126304;1099;104181;-81
2021/11/14 06:03:05;;;;;;;73.70;41.53;;;;;;;9.39;75.59;101447.60;126352;1099;104140;-81
2021/11/14 06:05:41;;;;;;;70.87;39.43;;;;;;;9.35;75.28;101450.05;126303;1099;104232;-80
2021/11/14 06:08:21;;;;;;;65.33;39.67;;;;;;;9.33;75.71;101445.53;126318;1099;104622;-81
2021/11/14 06:10:54;;;;;;;69.13;38.60;;;;;;;9.30;75.39;101443.66;126349;1099;104166;-80
2021/11/14 06:13:32;;;;;;;70.65;38.55;;;;;;;9.30;75.10;101447.98;126227;1099;104336;-82
2021/11/14 06:16:08;;;;;;;72.27;39.77;;;;;;;9.32;75.05;101449.88;126255;1099;104248;-81
2021/11/14 06:18:43;;;;;;;70.97;39.23;;;;;;;9.35;75.10;101439.57;126260;1098;104179;-80
2021/11/14 06:21:17;;;;;;;70.30;38.95;;;;;;;9.41;75.76;101452.12;126316;1099;104172;-81
2021/11/14 06:23:51;;;;;;;67.40;37.60;;;;;;;9.43;75.25;101447.86;126346;1099;104274;-81
2021/11/14 06:26:26;;;;;;;70.23;37.70;;;;;;;9.44;75.77;101451.37;126218;1099;104133;-81
2021/11/14 06:29:00;;;;;;;64.60;36.10;;;;;;;9.44;76.09;101451.37;126261;1099;104220;-81
2021/11/14 06:31:35;;;;;;;74.00;40.73;;;;;;;9.43;75.91;101452.20;126282;1099;104257;-81
2021/11/14 06:34:08;;;;;;;69.87;39.43;;;;;;;9.41;75.37;101448.58;126359;1099;104149;-80
2021/11/14 06:36:42;;;;;;;74.53;42.17;;;;;;;9.39;75.81;101451.11;126271;1099;104150;-81
2021/11/14 06:39:19;;;;;;;67.63;38.30;;;;;;;9.42;75.86;101455.63;126256;1099;104152;-81
2021/11/14 06:41:54;;;;;;;66.07;38.03;;;;;;;9.42;75.82;101451.28;126336;1099;104144;-81
2021/11/14 06:44:29;;;;;;;70.07;35.57;;;;;;;9.45;76.04;101450.56;126310;1099;104243;-81
2021/11/14 06:47:04;;;;;;;65.67;36.80;;;;;;;9.47;75.52;101449.84;126258;1099;104195;-81
2021/11/14 06:49:37;;;;;;;60.47;32.97;;;;;;;9.51;76.12;101456.14;126328;1099;104159;-80
2021/11/14 06:52:15;;;;;;;68.07;38.07;;;;;;;9.50;76.02;101455.22;126276;1099;104297;-81
2021/11/14 06:54:50;;;;;;;67.50;39.87;;;;;;;9.54;76.21;101458.94;125410;1099;104252;-81
2021/11/14 06:57:25;;;;;;;68.90;39.27;;;;;;;9.54;75.63;101457.20;126269;1099;104258;-81
2021/11/14 06:59:58;;;;;;;66.13;36.77;;;;;;;9.58;75.61;101452.13;126393;1099;104277;-80
2021/11/14 07:02:33;;;;;;;68.83;38.95;;;;;;;9.61;75.78;101447.06;126316;1099;104139;-81
2021/11/14 07:05:12;;;;;;;66.03;35.70;;;;;;;9.68;76.07;101449.21;126303;1099;104274;-81
2021/11/14 07:07:47;;;;;;;65.00;35.83;;;;;;;9.73;75.97;101450.35;126254;1099;104166;-81
2021/11/14 07:10:24;;;;;;;64.97;37.60;;;;;;;9.76;75.88;101437.41;126333;1099;104219;-82
2021/11/14 07:12:59;;;;;;;66.00;37.53;;;;;;;9.80;75.46;101451.57;126290;1099;104233;-80
2021/11/14 07:15:33;;;;;;;70.33;38.57;;;;;;;9.81;76.11;101453.39;126246;1099;104872;-80
2021/11/14 07:18:05;;;;;;;65.27;36.03;;;;;;;9.84;75.51;101436.09;126328;1099;104252;-81
2021/11/14 07:20:36;;;;;;;63.40;35.70;;;;;;;9.88;76.15;101442.42;126349;1098;104480;-81
2021/11/14 07:23:07;;;;;;;62.47;36.27;;;;;;;9.91;76.03;101445.21;126328;1097;104245;-81
2021/11/14 07:25:42;;;;;;;57.63;32.77;;;;;;;9.94;75.31;101448.00;126344;1099;104249;-80
2021/11/14 07:28:17;;;;;;;65.57;35.70;;;;;;;9.97;75.38;101445.54;126313;1099;104242;-80
2021/11/14 07:30:48;;;;;;;66.83;38.13;;;;;;;9.99;75.55;101451.75;126319;1099;104171;-81
2021/11/14 07:33:47;;;;;;;65.73;39.80;;;;;;;10.01;75.72;101459.70;126270;1099;104152;-81
2021/11/14 07:36:32;;;;;;;69.80;39.43;;;;;;;10.02;75.27;101449.30;126251;1099;104245;-82
2021/11/14 07:39:17;;;;;;;67.15;37.98;;;;;;;10.05;75.58;101449.46;126243;1099;104141;-81
2021/11/14 07:41:54;;;;;;;67.50;38.30;;;;;;;10.10;75.82;101456.65;126293;1099;104242;-82
2021/11/14 07:44:29;;;;;;;63.67;35.07;;;;;;;10.16;75.62;101451.73;126279;1099;104143;-80
2021/11/14 07:47:00;;;;;;;59.73;34.33;;;;;;;10.16;75.16;101450.03;126376;1099;104618;-81
2021/11/14 07:49:34;;;;;;;61.77;34.20;;;;;;;10.19;75.14;101457.13;126293;1099;104245;-81
2021/11/14 07:52:06;;;;;;;58.65;33.80;;;;;;;10.20;75.39;101464.20;126286;1098;104249;-81
2021/11/14 07:54:38;;;;;;;62.20;35.90;;;;;;;10.16;75.16;101459.59;126308;1099;104149;-82
2021/11/14 07:57:09;;;;;;;62.87;34.73;;;;;;;10.13;75.14;101467.30;126276;1099;104210;-81
2021/11/14 07:59:43;;;;;;;68.07;34.83;;;;;;;10.12;75.47;101457.66;126265;1099;104188;-82
2021/11/14 08:02:13;;;;;;;63.60;34.77;;;;;;;10.16;75.44;101455.27;126334;1099;104158;-82
2021/11/14 08:04:44;;;;;;;57.53;33.50;;;;;;;10.23;75.37;101461.73;126283;1099;104341;-81
2021/11/14 08:07:15;;;;;;;66.93;35.50;;;;;;;10.26;75.67;101464.52;126376;1099;104152;-82
2021/11/14 08:09:45;;;;;;;64.97;35.97;;;;;;;10.33;75.63;101460.52;126267;1099;104277;-81
2021/11/14 08:12:16;;;;;;;59.37;33.53;;;;;;;10.35;75.17;101462.41;126333;1099;104144;-82
2021/11/14 08:14:49;;;;;;;61.13;35.63;;;;;;;10.34;75.10;101454.45;126351;1099;104159;-81
2021/11/14 08:17:22;;;;;;;64.17;35.93;;;;;;;10.34;75.35;101462.33;126393;1098;104168;-82
2021/11/14 08:19:55;;;;;;;62.93;35.20;;;;;;;10.33;75.41;101464.06;126286;1099;104344;-81
2021/11/14 08:22:26;;;;;;;63.13;35.57;;;;;;;10.38;75.12;101461.68;126320;1098;104329;-82
2021/11/14 08:24:58;;;;;;;63.87;35.27;;;;;;;10.38;75.14;101454.70;126265;1099;104285;-81
2021/11/14 08:27:32;;;;;;;60.10;33.67;;;;;;;10.38;74.95;101459.95;126352;1099;104175;-80
2021/11/14 08:30:05;;;;;;;58.30;32.47;;;;;;;10.42;75.48;101453.13;126357;1099;104576;-81
2021/11/14 08:32:37;;;;;;;59.17;32.17;;;;;;;10.47;74.76;101455.98;126333;1099;104195;-81
2021/11/14 08:35:09;;;;;;;61.17;35.73;;;;;;;10.46;74.97;101455.09;126333;1099;104133;-81
2021/11/14 08:37:41;;;;;;;65.67;36.33;;;;;;;10.45;74.94;101458.53;126325;1098;104152;-80
2021/11/14 08:40:17;;;;;;;65.87;37.07;;;;;;;10.47;75.23;101461.23;126258;1099;104152;-81
2021/11/14 08:42:49;;;;;;;63.53;36.47;;;;;;;10.51;75.49;101456.22;126332;1099;104300;-81
2021/11/14 08:45:21;;;;;;;62.80;34.27;;;;;;;10.54;75.31;101463.36;126348;1099;104375;-81
2021/11/14 08:47:55;;;;;;;64.20;36.10;;;;;;;10.51;75.10;101463.20;126299;1099;104149;-81
2021/11/14 08:50:28;;;;;;;63.03;34.57;;;;;;;10.52;75.33;101457.14;126316;1099;104249;-81
2021/11/14 08:53:01;;;;;;;59.80;35.00;;;;;;;10.55;75.12;101463.44;126281;1099;104219;-81
2021/11/14 08:55:35;;;;;;;60.70;35.30;;;;;;;10.60;75.37;101458.42;126338;1099;104162;-81
2021/11/14 08:58:08;;;;;;;61.00;31.33;;;;;;;10.60;75.07;101446.19;126363;1099;104155;-80
2021/11/14 09:00:39;;;;;;;64.90;35.13;;;;;;;10.58;75.04;101457.42;126298;1099;105479;-80
2021/11/14 09:03:10;;;;;;;65.53;35.67;;;;;;;10.57;74.99;101453.91;126360;1099;104136;-81
2021/11/14 09:05:40;;;;;;;65.13;36.07;;;;;;;10.58;74.85;101458.34;126276;1099;104213;-81
2021/11/14 09:08:11;;;;;;;65.77;36.63;;;;;;;10.58;75.22;101458.34;126307;1099;104137;-80
2021/11/14 09:10:44;;;;;;;66.50;37.20;;;;;;;10.55;74.99;101445.06;126232;1099;104216;-80
2021/11/14 09:13:16;;;;;;;62.90;35.63;;;;;;;10.59;75.05;101453.98;126297;1099;104174;-81
2021/11/14 09:15:47;;;;;;;60.70;34.20;;;;;;;10.61;75.06;101450.63;126288;1099;104207;-81
2021/11/14 09:18:18;;;;;;;61.53;33.40;;;;;;;10.61;75.02;101448.00;126271;1099;104156;-81
2021/11/14 09:20:49;;;;;;;60.30;34.20;;;;;;;10.63;75.19;101445.45;126347;1099;104300;-81
2021/11/14 09:23:21;;;;;;;64.57;35.97;;;;;;;10.65;74.79;101448.16;126339;1099;104267;-81
2021/11/14 09:25:52;;;;;;;62.50;34.90;;;;;;;10.63;75.04;101452.41;126342;1099;104306;-81
2021/11/14 09:28:22;;;;;;;67.53;37.60;;;;;;;10.57;74.75;101453.91;126371;1099;104153;-80
2021/11/14 09:30:54;;;;;;;65.37;36.33;;;;;;;10.54;74.80;101450.23;126312;1098;104169;-80
2021/11/14 09:33:27;;;;;;;64.53;35.40;;;;;;;10.53;75.09;101453.67;126363;1099;104628;-82
2021/11/14 09:35:58;;;;;;;62.50;34.23;;;;;;;10.48;74.40;101445.56;126329;1099;104248;-81
2021/11/14 09:38:29;;;;;;;57.90;32.77;;;;;;;10.45;74.90;101442.78;126318;1099;104309;-82
2021/11/14 09:41:01;;;;;;;58.50;31.67;;;;;;;10.42;74.55;101451.42;126322;1098;104146;-81
2021/11/14 09:43:32;;;;;;;59.83;32.73;;;;;;;10.40;74.57;101445.17;126325;1099;104150;-82
2021/11/14 09:46:03;;;;;;;60.33;35.20;;;;;;;10.42;74.69;101440.00;126338;1099;104249;-82
2021/11/14 09:48:34;;;;;;;61.07;35.57;;;;;;;10.39;74.54;101442.47;126341;1099;104380;-82
2021/11/14 09:51:05;;;;;;;62.33;35.20;;;;;;;10.37;74.55;101429.27;126267;1099;101949;-81
2021/11/14 09:53:38;;;;;;;57.75;33.05;;;;;;;10.34;74.56;101434.36;126332;1098;104146;-81
2021/11/14 09:56:10;;;;;;;65.10;34.55;;;;;;;10.35;74.30;101435.28;126277;1099;104437;-81
2021/11/14 09:58:41;;;;;;;57.60;31.05;;;;;;;10.33;74.18;101435.20;126375;1099;104175;-81
2021/11/14 10:01:14;;;;;;;57.97;33.27;;;;;;;10.27;74.57;101440.09;126290;1099;104178;-81
2021/11/14 10:03:45;;;;;;;62.23;34.00;;;;;;;10.19;73.87;101437.08;126346;1098;104152;-82
2021/11/14 10:06:15;;;;;;;61.53;34.40;;;;;;;10.13;74.41;101439.38;126254;1099;104169;-82
2021/11/14 10:08:47;;;;;;;61.23;33.57;;;;;;;10.10;74.04;101443.53;126355;1099;104145;-81
2021/11/14 10:11:18;;;;;;;64.33;33.63;;;;;;;10.01;74.24;101439.61;126284;1099;104137;-82
2021/11/14 10:13:50;;;;;;;62.13;33.90;;;;;;;9.93;74.06;101440.94;126291;1099;104190;-81
2021/11/14 10:16:23;;;;;;;62.25;31.90;;;;;;;9.91;74.18;101445.21;126232;1099;104200;-81
2021/11/14 10:18:56;;;;;;;57.60;30.70;;;;;;;9.89;74.47;101438.96;126328;1099;104294;-81
2021/11/14 10:21:30;;;;;;;57.05;30.82;;;;;;;9.86;74.58;101441.42;126311;1099;104277;-81
2021/11/14 10:24:05;;;;;;;58.60;31.80;;;;;;;9.85;74.65;101437.02;126259;1099;104153;-82
2021/11/14 10:26:37;;;;;;;61.03;32.33;;;;;;;9.84;74.80;101437.83;126338;1099;104261;-82
2021/11/14 10:29:10;;;;;;;59.50;32.47;;;;;;;9.83;74.47;101438.62;126313;1099;104134;-82
2021/11/14 10:31:42;;;;;;;62.47;33.97;;;;;;;9.86;74.71;101442.34;126280;1099;104251;-82
2021/11/14 10:34:12;;;;;;;58.40;30.70;;;;;;;9.88;74.85;101435.45;126308;1099;104604;-82
2021/11/14 10:36:43;;;;;;;65.40;32.70;;;;;;;9.94;74.86;101447.08;126335;1098;104220;-80
2021/11/14 10:39:14;;;;;;;57.30;31.07;;;;;;;9.97;74.08;101441.99;126302;1097;104252;-81
2021/11/14 10:41:47;;;;;;;58.75;30.50;;;;;;;10.02;74.44;101433.56;126289;1097;104322;-81
2021/11/14 10:44:20;;;;;;;53.77;27.87;;;;;;;10.13;74.78;101427.96;126282;1099;104216;-81
2021/11/14 10:46:52;;;;;;;56.93;31.07;;;;;;;10.17;74.19;101441.31;126369;1099;104233;-82
2021/11/14 10:49:23;;;;;;;58.60;32.05;;;;;;;10.21;74.16;101431.91;126346;1099;104217;-82
2021/11/14 10:51:59;;;;;;;59.23;32.17;;;;;;;10.20;74.08;101424.85;126327;1099;104232;-81
2021/11/14 10:54:30;;;;;;;58.80;31.57;;;;;;;10.20;74.32;101425.73;126331;1097;104355;-81
2021/11/14 10:57:03;;;;;;;54.10;30.30;;;;;;;10.24;74.13;101421.58;126314;1097;104149;-82
2021/11/14 10:59:34;;;;;;;52.50;28.57;;;;;;;10.26;74.11;101417.30;126352;1099;104149;-82
2021/11/14 11:02:07;;;;;;;51.97;28.60;;;;;;;10.26;73.90;101425.17;126315;1099;105278;-81
2021/11/14 11:04:37;;;;;;;53.87;29.47;;;;;;;10.25;74.61;101424.28;126343;1099;104317;-81
2021/11/14 11:07:10;;;;;;;58.80;31.40;;;;;;;10.24;74.50;101422.47;126332;1099;104631;-82
2021/11/14 11:09:42;;;;;;;53.97;30.17;;;;;;;10.25;74.26;101421.66;126357;1099;104242;-82
2021/11/14 11:12:24;;;;;;;54.20;29.20;;;;;;;10.28;74.09;101420.00;126232;1099;104204;-82
2021/11/14 11:15:01;;;;;;;52.95;28.10;;;;;;;10.31;74.50;101413.18;126370;1099;104193;-81
2021/11/14 11:17:45;;;;;;;53.40;28.13;;;;;;;10.30;74.28;101415.72;126379;1099;104238;-82
2021/11/14 11:20:18;;;;;;;50.73;26.33;;;;;;;10.25;74.31;101419.03;126357;1099;104149;-82
2021/11/14 11:22:56;;;;;;;47.80;26.03;;;;;;;10.23;74.16;101414.52;126312;1099;104599;-81
2021/11/14 11:25:33;;;;;;;48.67;25.97;;;;;;;10.21;74.05;101416.17;126263;1098;104307;-82